sensor_id;sensor_type;location;lat;lon;timestamp;pressure;altitude;pressure_sealevel;temperature
76394;BMP180;65216;51.090;-115.352;2023-11-19T00:01:02;86080.80;;;22.60
76394;BMP180;65216;51.090;-115.352;2023-11-19T00:03:31;86119.40;;;22.60
76394;BMP180;65216;51.090;-115.352;2023-11-19T00:06:00;86082.00;;;22.60
76394;BMP180;65216;51.090;-115.352;2023-11-19T00:08:27;86101.00;;;22.60
76394;BMP180;65216;51.090;-115.352;2023-11-19T00:10:54;86097.80;;;22.60
76394;BMP180;65216;51.090;-115.352;2023-11-19T00:13:22;86099.20;;;22.52
76394;BMP180;65216;51.090;-115.352;2023-11-19T00:15:49;86106.00;;;22.52
76394;BMP180;65216;51.090;-115.352;2023-11-19T00:18:16;86089.80;;;22.50
76394;BMP180;65216;51.090;-115.352;2023-11-19T00:20:43;86097.40;;;22.50
76394;BMP180;65216;51.090;-115.352;2023-11-19T00:23:11;86116.00;;;22.50
76394;BMP180;65216;51.090;-115.352;2023-11-19T00:25:37;86100.20;;;22.50
76394;BMP180;65216;51.090;-115.352;2023-11-19T00:28:05;86109.00;;;22.50
76394;BMP180;65216;51.090;-115.352;2023-11-19T00:30:31;86108.00;;;22.50
76394;BMP180;65216;51.090;-115.352;2023-11-19T00:32:58;86106.20;;;22.50
76394;BMP180;65216;51.090;-115.352;2023-11-19T00:35:25;86113.40;;;22.50
76394;BMP180;65216;51.090;-115.352;2023-11-19T00:37:55;86117.40;;;22.50
76394;BMP180;65216;51.090;-115.352;2023-11-19T00:40:24;86108.20;;;22.50
76394;BMP180;65216;51.090;-115.352;2023-11-19T00:42:53;86110.60;;;22.50
76394;BMP180;65216;51.090;-115.352;2023-11-19T00:45:20;86118.00;;;22.50
76394;BMP180;65216;51.090;-115.352;2023-11-19T00:47:46;86110.80;;;22.46
76394;BMP180;65216;51.090;-115.352;2023-11-19T00:50:13;86119.60;;;22.40
76394;BMP180;65216;51.090;-115.352;2023-11-19T00:52:40;86105.20;;;22.44
76394;BMP180;65216;51.090;-115.352;2023-11-19T00:55:08;86122.20;;;22.40
76394;BMP180;65216;51.090;-115.352;2023-11-19T00:57:35;86121.00;;;22.40
76394;BMP180;65216;51.090;-115.352;2023-11-19T01:00:02;86117.40;;;22.40
76394;BMP180;65216;51.090;-115.352;2023-11-19T01:02:35;86109.20;;;22.40
76394;BMP180;65216;51.090;-115.352;2023-11-19T01:05:02;86116.20;;;22.40
76394;BMP180;65216;51.090;-115.352;2023-11-19T01:07:32;86102.40;;;22.40
76394;BMP180;65216;51.090;-115.352;2023-11-19T01:09:58;86112.00;;;22.40
76394;BMP180;65216;51.090;-115.352;2023-11-19T01:12:25;86122.00;;;22.40
76394;BMP180;65216;51.090;-115.352;2023-11-19T01:14:57;86109.40;;;22.40
76394;BMP180;65216;51.090;-115.352;2023-11-19T01:17:24;86112.60;;;22.40
76394;BMP180;65216;51.090;-115.352;2023-11-19T01:19:51;86106.40;;;22.40
76394;BMP180;65216;51.090;-115.352;2023-11-19T01:22:17;86122.40;;;22.38
76394;BMP180;65216;51.090;-115.352;2023-11-19T01:24:45;86110.40;;;22.38
76394;BMP180;65216;51.090;-115.352;2023-11-19T01:27:14;86100.40;;;22.38
76394;BMP180;65216;51.090;-115.352;2023-11-19T01:29:40;86094.20;;;22.30
76394;BMP180;65216;51.090;-115.352;2023-11-19T01:32:09;86110.40;;;22.30
76394;BMP180;65216;51.090;-115.352;2023-11-19T01:34:39;86088.80;;;22.30
76394;BMP180;65216;51.090;-115.352;2023-11-19T01:37:09;86098.60;;;22.30
76394;BMP180;65216;51.090;-115.352;2023-11-19T01:39:38;86106.80;;;22.30
76394;BMP180;65216;51.090;-115.352;2023-11-19T01:42:05;86095.60;;;22.30
76394;BMP180;65216;51.090;-115.352;2023-11-19T01:44:32;86107.00;;;22.30
76394;BMP180;65216;51.090;-115.352;2023-11-19T01:47:00;86096.40;;;22.30
76394;BMP180;65216;51.090;-115.352;2023-11-19T01:49:27;86089.40;;;22.30
76394;BMP180;65216;51.090;-115.352;2023-11-19T01:51:55;86082.60;;;22.30
76394;BMP180;65216;51.090;-115.352;2023-11-19T01:54:24;86093.20;;;22.30
76394;BMP180;65216;51.090;-115.352;2023-11-19T01:56:53;86091.40;;;22.30
76394;BMP180;65216;51.090;-115.352;2023-11-19T01:59:24;86084.20;;;22.28
76394;BMP180;65216;51.090;-115.352;2023-11-19T02:01:56;86086.40;;;22.28
76394;BMP180;65216;51.090;-115.352;2023-11-19T02:04:24;86071.20;;;22.28
76394;BMP180;65216;51.090;-115.352;2023-11-19T02:06:56;86079.40;;;22.20
76394;BMP180;65216;51.090;-115.352;2023-11-19T02:09:24;86075.20;;;22.22
76394;BMP180;65216;51.090;-115.352;2023-11-19T02:11:51;86069.80;;;22.20
76394;BMP180;65216;51.090;-115.352;2023-11-19T02:14:23;86073.20;;;22.22
76394;BMP180;65216;51.090;-115.352;2023-11-19T02:16:51;86062.80;;;22.20
76394;BMP180;65216;51.090;-115.352;2023-11-19T02:19:24;86066.20;;;22.20
76394;BMP180;65216;51.090;-115.352;2023-11-19T02:21:53;86058.80;;;22.20
76394;BMP180;65216;51.090;-115.352;2023-11-19T02:24:22;86061.00;;;22.20
76394;BMP180;65216;51.090;-115.352;2023-11-19T02:27:19;86060.00;;;22.20
76394;BMP180;65216;51.090;-115.352;2023-11-19T02:29:51;86063.40;;;22.20
76394;BMP180;65216;51.090;-115.352;2023-11-19T02:32:18;86063.80;;;22.20
76394;BMP180;65216;51.090;-115.352;2023-11-19T02:34:44;86054.80;;;22.20
76394;BMP180;65216;51.090;-115.352;2023-11-19T02:37:11;86041.20;;;22.20
76394;BMP180;65216;51.090;-115.352;2023-11-19T02:39:38;86047.00;;;22.20
76394;BMP180;65216;51.090;-115.352;2023-11-19T02:42:07;86049.00;;;22.20
76394;BMP180;65216;51.090;-115.352;2023-11-19T02:44:36;86047.20;;;22.20
76394;BMP180;65216;51.090;-115.352;2023-11-19T02:47:05;86045.80;;;22.14
76394;BMP180;65216;51.090;-115.352;2023-11-19T02:52:01;86039.20;;;22.20
76394;BMP180;65216;51.090;-115.352;2023-11-19T02:54:31;86037.20;;;22.20
76394;BMP180;65216;51.090;-115.352;2023-11-19T02:57:01;86032.00;;;22.12
76394;BMP180;65216;51.090;-115.352;2023-11-19T02:59:30;86041.80;;;22.10
76394;BMP180;65216;51.090;-115.352;2023-11-19T03:02:08;86029.20;;;22.10
76394;BMP180;65216;51.090;-115.352;2023-11-19T03:04:38;86014.20;;;22.10
76394;BMP180;65216;51.090;-115.352;2023-11-19T03:07:10;86014.60;;;22.10
76394;BMP180;65216;51.090;-115.352;2023-11-19T03:09:37;86012.40;;;22.10
76394;BMP180;65216;51.090;-115.352;2023-11-19T03:12:07;86020.20;;;22.10
76394;BMP180;65216;51.090;-115.352;2023-11-19T03:14:34;86018.80;;;22.10
76394;BMP180;65216;51.090;-115.352;2023-11-19T03:17:03;86009.60;;;22.10
76394;BMP180;65216;51.090;-115.352;2023-11-19T03:19:31;86010.20;;;22.10
76394;BMP180;65216;51.090;-115.352;2023-11-19T03:22:01;86017.80;;;22.10
76394;BMP180;65216;51.090;-115.352;2023-11-19T03:24:28;86009.00;;;22.10
76394;BMP180;65216;51.090;-115.352;2023-11-19T03:26:55;86013.40;;;22.10
76394;BMP180;65216;51.090;-115.352;2023-11-19T03:29:22;86009.80;;;22.10
76394;BMP180;65216;51.090;-115.352;2023-11-19T03:31:49;86012.00;;;22.10
76394;BMP180;65216;51.090;-115.352;2023-11-19T03:34:16;86010.20;;;22.10
76394;BMP180;65216;51.090;-115.352;2023-11-19T03:36:43;86007.80;;;22.10
76394;BMP180;65216;51.090;-115.352;2023-11-19T03:39:09;86017.60;;;22.10
76394;BMP180;65216;51.090;-115.352;2023-11-19T03:41:36;86003.20;;;22.10
76394;BMP180;65216;51.090;-115.352;2023-11-19T03:44:03;86000.00;;;22.10
76394;BMP180;65216;51.090;-115.352;2023-11-19T03:46:37;86000.80;;;22.10
76394;BMP180;65216;51.090;-115.352;2023-11-19T03:49:04;85988.40;;;22.10
76394;BMP180;65216;51.090;-115.352;2023-11-19T03:51:33;85985.60;;;22.06
76394;BMP180;65216;51.090;-115.352;2023-11-19T03:54:01;86002.60;;;22.00
76394;BMP180;65216;51.090;-115.352;2023-11-19T03:56:27;85995.00;;;22.00
76394;BMP180;65216;51.090;-115.352;2023-11-19T03:58:54;85997.00;;;22.00
76394;BMP180;65216;51.090;-115.352;2023-11-19T04:01:21;85991.40;;;22.00
76394;BMP180;65216;51.090;-115.352;2023-11-19T04:03:50;85998.60;;;22.00
76394;BMP180;65216;51.090;-115.352;2023-11-19T04:06:17;85996.00;;;22.00
76394;BMP180;65216;51.090;-115.352;2023-11-19T04:08:44;85988.00;;;22.00
76394;BMP180;65216;51.090;-115.352;2023-11-19T04:11:11;85986.40;;;22.00
76394;BMP180;65216;51.090;-115.352;2023-11-19T04:13:38;85989.80;;;22.00
76394;BMP180;65216;51.090;-115.352;2023-11-19T04:16:05;85983.20;;;22.00
76394;BMP180;65216;51.090;-115.352;2023-11-19T04:18:32;85983.80;;;22.00
76394;BMP180;65216;51.090;-115.352;2023-11-19T04:20:59;85980.60;;;22.00
76394;BMP180;65216;51.090;-115.352;2023-11-19T04:23:25;85981.20;;;21.98
76394;BMP180;65216;51.090;-115.352;2023-11-19T04:25:54;85980.20;;;21.90
76394;BMP180;65216;51.090;-115.352;2023-11-19T04:28:22;85970.40;;;21.90
76394;BMP180;65216;51.090;-115.352;2023-11-19T04:30:52;85966.80;;;21.90
76394;BMP180;65216;51.090;-115.352;2023-11-19T04:33:19;85971.80;;;21.92
76394;BMP180;65216;51.090;-115.352;2023-11-19T04:35:46;85966.40;;;22.00
76394;BMP180;65216;51.090;-115.352;2023-11-19T04:38:12;85956.60;;;22.00
76394;BMP180;65216;51.090;-115.352;2023-11-19T04:40:40;85962.80;;;22.00
76394;BMP180;65216;51.090;-115.352;2023-11-19T04:43:10;85967.40;;;21.98
76394;BMP180;65216;51.090;-115.352;2023-11-19T04:45:36;85955.60;;;22.00
76394;BMP180;65216;51.090;-115.352;2023-11-19T04:48:04;85965.60;;;21.98
76394;BMP180;65216;51.090;-115.352;2023-11-19T04:50:33;85956.60;;;21.96
76394;BMP180;65216;51.090;-115.352;2023-11-19T04:52:59;85960.80;;;22.00
76394;BMP180;65216;51.090;-115.352;2023-11-19T04:55:26;85964.20;;;21.94
76394;BMP180;65216;51.090;-115.352;2023-11-19T04:57:54;85966.60;;;21.98
76394;BMP180;65216;51.090;-115.352;2023-11-19T05:00:23;85962.80;;;22.00
76394;BMP180;65216;51.090;-115.352;2023-11-19T05:02:53;85962.60;;;22.00
76394;BMP180;65216;51.090;-115.352;2023-11-19T05:05:20;85962.60;;;22.00
76394;BMP180;65216;51.090;-115.352;2023-11-19T05:07:47;85960.20;;;22.00
76394;BMP180;65216;51.090;-115.352;2023-11-19T05:10:14;85953.00;;;22.00
76394;BMP180;65216;51.090;-115.352;2023-11-19T05:12:41;85947.60;;;22.00
76394;BMP180;65216;51.090;-115.352;2023-11-19T05:15:10;85945.00;;;22.00
76394;BMP180;65216;51.090;-115.352;2023-11-19T05:17:38;85931.20;;;22.00
76394;BMP180;65216;51.090;-115.352;2023-11-19T05:20:06;85936.60;;;22.00
76394;BMP180;65216;51.090;-115.352;2023-11-19T05:22:43;85938.20;;;22.00
76394;BMP180;65216;51.090;-115.352;2023-11-19T05:25:10;85938.80;;;22.00
76394;BMP180;65216;51.090;-115.352;2023-11-19T05:27:38;85939.20;;;22.00
76394;BMP180;65216;51.090;-115.352;2023-11-19T05:30:06;85936.60;;;22.00
76394;BMP180;65216;51.090;-115.352;2023-11-19T05:32:34;85949.40;;;22.00
76394;BMP180;65216;51.090;-115.352;2023-11-19T05:35:01;85941.00;;;22.00
76394;BMP180;65216;51.090;-115.352;2023-11-19T05:37:28;85945.20;;;22.00
76394;BMP180;65216;51.090;-115.352;2023-11-19T05:39:55;85943.80;;;22.00
76394;BMP180;65216;51.090;-115.352;2023-11-19T05:42:21;85939.20;;;22.00
76394;BMP180;65216;51.090;-115.352;2023-11-19T05:44:52;85940.00;;;22.00
76394;BMP180;65216;51.090;-115.352;2023-11-19T05:47:19;85934.40;;;22.00
76394;BMP180;65216;51.090;-115.352;2023-11-19T05:49:46;85936.80;;;22.00
76394;BMP180;65216;51.090;-115.352;2023-11-19T05:52:14;85941.40;;;22.00
76394;BMP180;65216;51.090;-115.352;2023-11-19T05:54:41;85941.00;;;22.00
76394;BMP180;65216;51.090;-115.352;2023-11-19T05:57:08;85939.80;;;22.00
76394;BMP180;65216;51.090;-115.352;2023-11-19T05:59:40;85938.00;;;22.00
76394;BMP180;65216;51.090;-115.352;2023-11-19T06:02:06;85937.40;;;22.00
76394;BMP180;65216;51.090;-115.352;2023-11-19T06:04:36;85932.20;;;22.00
76394;BMP180;65216;51.090;-115.352;2023-11-19T06:07:03;85939.00;;;22.00
76394;BMP180;65216;51.090;-115.352;2023-11-19T06:09:31;85928.00;;;22.00
76394;BMP180;65216;51.090;-115.352;2023-11-19T06:12:00;85934.20;;;22.00
76394;BMP180;65216;51.090;-115.352;2023-11-19T06:14:28;85932.80;;;22.00
76394;BMP180;65216;51.090;-115.352;2023-11-19T06:16:55;85922.60;;;22.00
76394;BMP180;65216;51.090;-115.352;2023-11-19T06:19:22;85925.00;;;22.00
76394;BMP180;65216;51.090;-115.352;2023-11-19T06:21:51;85919.20;;;22.00
76394;BMP180;65216;51.090;-115.352;2023-11-19T06:24:18;85923.40;;;22.00
76394;BMP180;65216;51.090;-115.352;2023-11-19T06:26:45;85925.40;;;22.00
76394;BMP180;65216;51.090;-115.352;2023-11-19T06:29:11;85926.80;;;22.00
76394;BMP180;65216;51.090;-115.352;2023-11-19T06:31:42;85921.40;;;22.00
76394;BMP180;65216;51.090;-115.352;2023-11-19T06:34:10;85924.40;;;22.00
76394;BMP180;65216;51.090;-115.352;2023-11-19T06:36:36;85923.40;;;22.00
76394;BMP180;65216;51.090;-115.352;2023-11-19T06:39:04;85915.00;;;22.00
76394;BMP180;65216;51.090;-115.352;2023-11-19T06:41:34;85915.80;;;22.00
76394;BMP180;65216;51.090;-115.352;2023-11-19T06:44:01;85912.40;;;22.00
76394;BMP180;65216;51.090;-115.352;2023-11-19T06:46:27;85914.80;;;22.00
76394;BMP180;65216;51.090;-115.352;2023-11-19T06:48:54;85916.00;;;22.00
76394;BMP180;65216;51.090;-115.352;2023-11-19T06:51:21;85922.80;;;22.00
76394;BMP180;65216;51.090;-115.352;2023-11-19T06:53:48;85922.40;;;22.00
76394;BMP180;65216;51.090;-115.352;2023-11-19T06:56:23;85919.80;;;22.00
76394;BMP180;65216;51.090;-115.352;2023-11-19T06:58:53;85932.20;;;22.00
76394;BMP180;65216;51.090;-115.352;2023-11-19T07:01:20;85922.20;;;22.00
76394;BMP180;65216;51.090;-115.352;2023-11-19T07:03:48;85926.40;;;22.00
76394;BMP180;65216;51.090;-115.352;2023-11-19T07:06:15;85920.80;;;22.00
76394;BMP180;65216;51.090;-115.352;2023-11-19T07:08:45;85911.60;;;22.00
76394;BMP180;65216;51.090;-115.352;2023-11-19T07:11:13;85904.80;;;22.00
76394;BMP180;65216;51.090;-115.352;2023-11-19T07:13:42;85908.00;;;22.00
76394;BMP180;65216;51.090;-115.352;2023-11-19T07:16:09;85907.60;;;22.00
76394;BMP180;65216;51.090;-115.352;2023-11-19T07:18:36;85908.20;;;22.00
76394;BMP180;65216;51.090;-115.352;2023-11-19T07:21:05;85903.20;;;22.00
76394;BMP180;65216;51.090;-115.352;2023-11-19T07:23:32;85908.60;;;22.00
76394;BMP180;65216;51.090;-115.352;2023-11-19T07:26:00;85914.60;;;22.00
76394;BMP180;65216;51.090;-115.352;2023-11-19T07:28:27;85910.20;;;22.00
76394;BMP180;65216;51.090;-115.352;2023-11-19T07:30:55;85914.40;;;22.00
76394;BMP180;65216;51.090;-115.352;2023-11-19T07:33:23;85912.40;;;22.00
76394;BMP180;65216;51.090;-115.352;2023-11-19T07:35:50;85908.80;;;22.00
76394;BMP180;65216;51.090;-115.352;2023-11-19T07:38:17;85906.40;;;22.00
76394;BMP180;65216;51.090;-115.352;2023-11-19T07:40:44;85904.00;;;22.00
76394;BMP180;65216;51.090;-115.352;2023-11-19T07:43:11;85903.80;;;22.04
76394;BMP180;65216;51.090;-115.352;2023-11-19T07:45:38;85909.20;;;22.00
76394;BMP180;65216;51.090;-115.352;2023-11-19T07:48:07;85905.20;;;22.02
76394;BMP180;65216;51.090;-115.352;2023-11-19T07:50:33;85891.80;;;22.04
76394;BMP180;65216;51.090;-115.352;2023-11-19T07:53:00;85901.20;;;22.00
76394;BMP180;65216;51.090;-115.352;2023-11-19T07:55:31;85894.20;;;22.00
76394;BMP180;65216;51.090;-115.352;2023-11-19T07:58:00;85894.80;;;22.00
76394;BMP180;65216;51.090;-115.352;2023-11-19T08:00:27;85900.80;;;22.00
76394;BMP180;65216;51.090;-115.352;2023-11-19T08:02:54;85898.60;;;22.00
76394;BMP180;65216;51.090;-115.352;2023-11-19T08:05:20;85902.20;;;22.00
76394;BMP180;65216;51.090;-115.352;2023-11-19T08:07:50;85906.20;;;22.00
76394;BMP180;65216;51.090;-115.352;2023-11-19T08:10:20;85898.80;;;22.00
76394;BMP180;65216;51.090;-115.352;2023-11-19T08:12:46;85893.00;;;22.00
76394;BMP180;65216;51.090;-115.352;2023-11-19T08:15:13;85892.60;;;22.00
76394;BMP180;65216;51.090;-115.352;2023-11-19T08:17:41;85893.60;;;22.00
76394;BMP180;65216;51.090;-115.352;2023-11-19T08:20:12;85908.00;;;22.00
76394;BMP180;65216;51.090;-115.352;2023-11-19T08:22:41;85893.60;;;22.00
76394;BMP180;65216;51.090;-115.352;2023-11-19T08:25:08;85896.80;;;22.00
76394;BMP180;65216;51.090;-115.352;2023-11-19T08:27:35;85878.20;;;22.00
76394;BMP180;65216;51.090;-115.352;2023-11-19T08:30:02;85893.40;;;22.00
76394;BMP180;65216;51.090;-115.352;2023-11-19T08:32:28;85904.60;;;22.02
76394;BMP180;65216;51.090;-115.352;2023-11-19T08:34:58;85904.00;;;22.04
76394;BMP180;65216;51.090;-115.352;2023-11-19T08:37:25;85895.20;;;22.00
76394;BMP180;65216;51.090;-115.352;2023-11-19T08:39:56;85892.00;;;22.08
76394;BMP180;65216;51.090;-115.352;2023-11-19T08:42:28;85890.40;;;22.08
76394;BMP180;65216;51.090;-115.352;2023-11-19T08:44:56;85896.60;;;22.10
76394;BMP180;65216;51.090;-115.352;2023-11-19T08:47:23;85899.60;;;22.10
76394;BMP180;65216;51.090;-115.352;2023-11-19T08:49:53;85906.40;;;22.04
76394;BMP180;65216;51.090;-115.352;2023-11-19T08:52:23;85908.60;;;22.00
76394;BMP180;65216;51.090;-115.352;2023-11-19T08:54:50;85900.60;;;22.08
76394;BMP180;65216;51.090;-115.352;2023-11-19T08:57:17;85891.00;;;22.10
76394;BMP180;65216;51.090;-115.352;2023-11-19T08:59:46;85901.00;;;22.10
76394;BMP180;65216;51.090;-115.352;2023-11-19T09:02:13;85894.20;;;22.02
76394;BMP180;65216;51.090;-115.352;2023-11-19T09:04:40;85891.60;;;22.02
76394;BMP180;65216;51.090;-115.352;2023-11-19T09:07:07;85885.80;;;22.06
76394;BMP180;65216;51.090;-115.352;2023-11-19T09:09:36;85888.80;;;22.00
76394;BMP180;65216;51.090;-115.352;2023-11-19T09:12:03;85886.20;;;22.00
76394;BMP180;65216;51.090;-115.352;2023-11-19T09:14:30;85867.20;;;22.00
76394;BMP180;65216;51.090;-115.352;2023-11-19T09:16:58;85869.60;;;22.00
76394;BMP180;65216;51.090;-115.352;2023-11-19T09:19:25;85890.20;;;22.00
76394;BMP180;65216;51.090;-115.352;2023-11-19T09:21:55;85882.00;;;22.00
76394;BMP180;65216;51.090;-115.352;2023-11-19T09:24:24;85893.60;;;22.00
76394;BMP180;65216;51.090;-115.352;2023-11-19T09:26:51;85889.20;;;22.00
76394;BMP180;65216;51.090;-115.352;2023-11-19T09:29:20;85888.20;;;22.00
76394;BMP180;65216;51.090;-115.352;2023-11-19T09:31:48;85889.20;;;22.00
76394;BMP180;65216;51.090;-115.352;2023-11-19T09:34:14;85890.40;;;22.00
76394;BMP180;65216;51.090;-115.352;2023-11-19T09:36:41;85896.00;;;22.00
76394;BMP180;65216;51.090;-115.352;2023-11-19T09:39:13;85887.60;;;22.00
76394;BMP180;65216;51.090;-115.352;2023-11-19T09:41:47;85896.60;;;22.00
76394;BMP180;65216;51.090;-115.352;2023-11-19T09:44:14;85885.00;;;22.00
76394;BMP180;65216;51.090;-115.352;2023-11-19T09:46:45;85902.80;;;22.00
76394;BMP180;65216;51.090;-115.352;2023-11-19T09:49:14;85894.80;;;22.00
76394;BMP180;65216;51.090;-115.352;2023-11-19T09:51:44;85905.20;;;22.00
76394;BMP180;65216;51.090;-115.352;2023-11-19T09:54:11;85894.40;;;22.00
76394;BMP180;65216;51.090;-115.352;2023-11-19T09:56:40;85899.20;;;22.00
76394;BMP180;65216;51.090;-115.352;2023-11-19T09:59:10;85885.80;;;22.00
76394;BMP180;65216;51.090;-115.352;2023-11-19T10:01:38;85880.00;;;22.00
76394;BMP180;65216;51.090;-115.352;2023-11-19T10:04:07;85875.60;;;22.00
76394;BMP180;65216;51.090;-115.352;2023-11-19T10:06:34;85875.20;;;22.00
76394;BMP180;65216;51.090;-115.352;2023-11-19T10:09:05;85872.40;;;22.00
76394;BMP180;65216;51.090;-115.352;2023-11-19T10:11:32;85876.60;;;22.00
76394;BMP180;65216;51.090;-115.352;2023-11-19T10:14:00;85864.80;;;22.00
76394;BMP180;65216;51.090;-115.352;2023-11-19T10:16:30;85877.00;;;22.00
76394;BMP180;65216;51.090;-115.352;2023-11-19T10:19:00;85875.60;;;22.00
76394;BMP180;65216;51.090;-115.352;2023-11-19T10:21:26;85876.80;;;22.00
76394;BMP180;65216;51.090;-115.352;2023-11-19T10:23:58;85886.40;;;22.00
76394;BMP180;65216;51.090;-115.352;2023-11-19T10:26:29;85871.60;;;22.00
76394;BMP180;65216;51.090;-115.352;2023-11-19T10:28:56;85875.00;;;22.00
76394;BMP180;65216;51.090;-115.352;2023-11-19T10:31:25;85865.00;;;22.00
76394;BMP180;65216;51.090;-115.352;2023-11-19T10:33:53;85877.40;;;22.00
76394;BMP180;65216;51.090;-115.352;2023-11-19T10:36:20;85875.60;;;22.00
76394;BMP180;65216;51.090;-115.352;2023-11-19T10:38:57;85880.20;;;22.00
76394;BMP180;65216;51.090;-115.352;2023-11-19T10:41:32;85888.20;;;22.00
76394;BMP180;65216;51.090;-115.352;2023-11-19T10:44:00;85895.80;;;22.00
76394;BMP180;65216;51.090;-115.352;2023-11-19T10:46:42;85872.60;;;22.00
76394;BMP180;65216;51.090;-115.352;2023-11-19T10:49:10;85883.60;;;22.00
76394;BMP180;65216;51.090;-115.352;2023-11-19T10:51:45;85880.40;;;22.00
76394;BMP180;65216;51.090;-115.352;2023-11-19T10:54:15;85878.20;;;22.00
76394;BMP180;65216;51.090;-115.352;2023-11-19T10:56:52;85863.40;;;22.00
76394;BMP180;65216;51.090;-115.352;2023-11-19T10:59:26;85864.80;;;22.00
76394;BMP180;65216;51.090;-115.352;2023-11-19T11:01:57;85872.80;;;22.00
76394;BMP180;65216;51.090;-115.352;2023-11-19T11:04:25;85870.40;;;22.00
76394;BMP180;65216;51.090;-115.352;2023-11-19T11:06:57;85872.40;;;22.00
76394;BMP180;65216;51.090;-115.352;2023-11-19T11:09:30;85892.60;;;22.00
76394;BMP180;65216;51.090;-115.352;2023-11-19T11:12:04;85862.20;;;22.00
76394;BMP180;65216;51.090;-115.352;2023-11-19T11:14:37;85865.60;;;22.00
76394;BMP180;65216;51.090;-115.352;2023-11-19T11:17:08;85864.40;;;21.96
76394;BMP180;65216;51.090;-115.352;2023-11-19T11:19:36;85860.60;;;21.90
76394;BMP180;65216;51.090;-115.352;2023-11-19T11:22:06;85859.40;;;21.90
76394;BMP180;65216;51.090;-115.352;2023-11-19T11:27:55;85866.80;;;21.90
76394;BMP180;65216;51.090;-115.352;2023-11-19T11:31:13;85862.20;;;21.90
76394;BMP180;65216;51.090;-115.352;2023-11-19T11:36:50;85860.60;;;21.90
76394;BMP180;65216;51.090;-115.352;2023-11-19T11:39:22;85863.60;;;21.90
76394;BMP180;65216;51.090;-115.352;2023-11-19T11:45:13;85862.60;;;21.80
76394;BMP180;65216;51.090;-115.352;2023-11-19T11:50:19;85864.80;;;21.80
76394;BMP180;65216;51.090;-115.352;2023-11-19T11:57:57;85854.40;;;21.80
76394;BMP180;65216;51.090;-115.352;2023-11-19T12:00:37;85839.60;;;21.80
76394;BMP180;65216;51.090;-115.352;2023-11-19T12:03:07;85850.00;;;21.80
76394;BMP180;65216;51.090;-115.352;2023-11-19T12:05:42;85848.60;;;21.70
76394;BMP180;65216;51.090;-115.352;2023-11-19T12:08:13;85839.40;;;21.74
76394;BMP180;65216;51.090;-115.352;2023-11-19T12:10:54;85842.00;;;21.70
76394;BMP180;65216;51.090;-115.352;2023-11-19T12:13:55;85854.40;;;21.70
76394;BMP180;65216;51.090;-115.352;2023-11-19T12:16:24;85849.80;;;21.70
76394;BMP180;65216;51.090;-115.352;2023-11-19T12:18:54;85844.00;;;21.70
76394;BMP180;65216;51.090;-115.352;2023-11-19T12:21:30;85840.00;;;21.70
76394;BMP180;65216;51.090;-115.352;2023-11-19T12:23:59;85832.60;;;21.70
76394;BMP180;65216;51.090;-115.352;2023-11-19T12:26:37;85818.60;;;21.70
76394;BMP180;65216;51.090;-115.352;2023-11-19T12:29:05;85846.20;;;21.70
76394;BMP180;65216;51.090;-115.352;2023-11-19T12:31:32;85853.80;;;21.70
76394;BMP180;65216;51.090;-115.352;2023-11-19T12:34:05;85838.80;;;21.70
76394;BMP180;65216;51.090;-115.352;2023-11-19T12:36:36;85839.40;;;21.70
76394;BMP180;65216;51.090;-115.352;2023-11-19T12:39:03;85850.60;;;21.70
76394;BMP180;65216;51.090;-115.352;2023-11-19T12:41:30;85851.80;;;21.70
76394;BMP180;65216;51.090;-115.352;2023-11-19T12:44:10;85844.20;;;21.70
76394;BMP180;65216;51.090;-115.352;2023-11-19T12:46:40;85857.20;;;21.66
76394;BMP180;65216;51.090;-115.352;2023-11-19T12:49:06;85842.40;;;21.60
76394;BMP180;65216;51.090;-115.352;2023-11-19T12:51:33;85846.80;;;21.60
76394;BMP180;65216;51.090;-115.352;2023-11-19T12:54:00;85844.80;;;21.60
76394;BMP180;65216;51.090;-115.352;2023-11-19T12:56:27;85846.60;;;21.60
76394;BMP180;65216;51.090;-115.352;2023-11-19T12:58:54;85849.40;;;21.60
76394;BMP180;65216;51.090;-115.352;2023-11-19T13:01:21;85859.00;;;21.60
76394;BMP180;65216;51.090;-115.352;2023-11-19T13:03:48;85844.80;;;21.60
76394;BMP180;65216;51.090;-115.352;2023-11-19T13:06:17;85845.80;;;21.60
76394;BMP180;65216;51.090;-115.352;2023-11-19T13:08:49;85860.60;;;21.60
76394;BMP180;65216;51.090;-115.352;2023-11-19T13:11:33;85855.00;;;21.60
76394;BMP180;65216;51.090;-115.352;2023-11-19T13:14:05;85857.00;;;21.60
76394;BMP180;65216;51.090;-115.352;2023-11-19T13:16:37;85862.60;;;21.60
76394;BMP180;65216;51.090;-115.352;2023-11-19T13:19:10;85868.20;;;21.60
76394;BMP180;65216;51.090;-115.352;2023-11-19T13:21:37;85870.00;;;21.60
76394;BMP180;65216;51.090;-115.352;2023-11-19T13:24:04;85869.60;;;21.60
76394;BMP180;65216;51.090;-115.352;2023-11-19T13:26:32;85874.80;;;21.60
76394;BMP180;65216;51.090;-115.352;2023-11-19T13:28:59;85867.00;;;21.58
76394;BMP180;65216;51.090;-115.352;2023-11-19T13:31:26;85867.40;;;21.60
76394;BMP180;65216;51.090;-115.352;2023-11-19T13:36:20;85871.60;;;21.50
76394;BMP180;65216;51.090;-115.352;2023-11-19T13:38:47;85877.00;;;21.50
76394;BMP180;65216;51.090;-115.352;2023-11-19T13:41:14;85870.80;;;21.50
76394;BMP180;65216;51.090;-115.352;2023-11-19T13:43:41;85878.80;;;21.50
76394;BMP180;65216;51.090;-115.352;2023-11-19T13:46:08;85862.20;;;21.50
76394;BMP180;65216;51.090;-115.352;2023-11-19T13:48:38;85874.60;;;21.50
76394;BMP180;65216;51.090;-115.352;2023-11-19T13:51:05;85872.80;;;21.50
76394;BMP180;65216;51.090;-115.352;2023-11-19T13:53:32;85877.80;;;21.50
76394;BMP180;65216;51.090;-115.352;2023-11-19T13:55:59;85894.80;;;21.50
76394;BMP180;65216;51.090;-115.352;2023-11-19T13:58:26;85889.60;;;21.50
76394;BMP180;65216;51.090;-115.352;2023-11-19T14:00:53;85883.80;;;21.50
76394;BMP180;65216;51.090;-115.352;2023-11-19T14:03:19;85900.80;;;21.50